createdAt,value
2023-02-20T00:00:55.724Z,101646.28
2023-02-20T00:03:25.116Z,101658.75
2023-02-20T00:05:52.763Z,101654.00
2023-02-20T00:08:23.004Z,101650.59
2023-02-20T00:10:50.678Z,101641.22
2023-02-20T00:13:18.238Z,101635.81
2023-02-20T00:15:45.830Z,101635.50
2023-02-20T00:18:14.272Z,101636.63
2023-02-20T00:20:41.915Z,101632.63
2023-02-20T00:23:09.539Z,101622.66
2023-02-20T00:25:38.449Z,101625.41
2023-02-20T00:28:06.337Z,101620.88
2023-02-20T00:30:34.146Z,101611.34
2023-02-20T00:33:02.636Z,101615.75
2023-02-20T00:35:30.192Z,101607.59
2023-02-20T00:37:57.892Z,101605.81
2023-02-20T00:40:27.047Z,101599.50
2023-02-20T00:42:55.971Z,101601.09
2023-02-20T00:45:25.610Z,101594.41
2023-02-20T00:47:53.258Z,101602.72
2023-02-20T00:50:20.979Z,101587.69
2023-02-20T00:52:48.678Z,101590.53
2023-02-20T00:55:16.337Z,101590.22
2023-02-20T00:57:44.252Z,101595.84
2023-02-20T01:00:19.627Z,101595.13
2023-02-20T01:02:47.370Z,101587.44
2023-02-20T01:05:15.108Z,101580.03
2023-02-20T01:07:43.061Z,101569.59
2023-02-20T01:10:12.243Z,101578.66
2023-02-20T01:12:40.120Z,101578.81
2023-02-20T01:15:10.513Z,101577.25
2023-02-20T01:17:39.395Z,101574.97
2023-02-20T01:20:10.577Z,101570.38
2023-02-20T01:22:38.222Z,101559.84
2023-02-20T01:25:06.594Z,101555.28
2023-02-20T01:27:34.334Z,101549.91
2023-02-20T01:30:02.072Z,101539.75
2023-02-20T01:32:29.631Z,101534.06
2023-02-20T01:34:58.665Z,101528.13
2023-02-20T01:37:26.253Z,101523.50
2023-02-20T01:39:53.839Z,101518.28
2023-02-20T01:42:24.664Z,101513.28
2023-02-20T01:44:52.591Z,101513.75
2023-02-20T01:47:22.353Z,101518.44
2023-02-20T01:49:52.998Z,101519.16
2023-02-20T01:52:25.922Z,101514.59
2023-02-20T01:54:59.105Z,101511.19
2023-02-20T01:57:31.055Z,101496.75
2023-02-20T02:00:03.989Z,101497.28
2023-02-20T02:02:33.140Z,101495.03
2023-02-20T02:05:01.024Z,101493.91
2023-02-20T02:07:30.662Z,101486.06
2023-02-20T02:10:03.196Z,101481.75
2023-02-20T02:12:31.202Z,101472.06
2023-02-20T02:14:59.027Z,101469.28
2023-02-20T02:17:56.073Z,101463.22
2023-02-20T02:20:44.974Z,101465.44
2023-02-20T02:23:58.631Z,101465.91
2023-02-20T02:27:05.158Z,101455.59
2023-02-20T02:29:50.672Z,101441.84
2023-02-20T02:33:04.864Z,101432.91
2023-02-20T02:36:00.582Z,101426.91
2023-02-20T02:38:35.666Z,101422.91
2023-02-20T02:41:07.873Z,101415.31
2023-02-20T02:43:42.557Z,101409.88
2023-02-20T02:46:18.683Z,101407.19
2023-02-20T02:48:52.407Z,101394.72
2023-02-20T02:51:24.630Z,101404.13
2023-02-20T02:54:13.093Z,101399.13
2023-02-20T02:56:44.868Z,101394.88
2023-02-20T02:59:16.249Z,101396.09
2023-02-20T03:01:46.984Z,101390.56
2023-02-20T03:04:23.526Z,101394.56
2023-02-20T03:06:54.455Z,101386.03
2023-02-20T03:09:27.471Z,101387.09
2023-02-20T03:11:57.482Z,101380.34
2023-02-20T03:14:47.229Z,101380.50
2023-02-20T03:17:22.648Z,101388.09
2023-02-20T03:19:53.164Z,101380.66
2023-02-20T03:22:24.985Z,101374.97
2023-02-20T03:25:00.410Z,101372.09
2023-02-20T03:27:38.728Z,101391.16
2023-02-20T03:30:12.267Z,101370.13
2023-02-20T03:33:01.042Z,101363.25
2023-02-20T03:35:49.701Z,101356.41
2023-02-20T03:38:36.464Z,101345.94
2023-02-20T03:41:25.012Z,101338.22
2023-02-20T03:43:54.707Z,101341.03
2023-02-20T03:46:24.833Z,101338.41
2023-02-20T03:48:56.486Z,101347.50
2023-02-20T03:51:41.902Z,101347.00
2023-02-20T03:54:10.410Z,101332.53
2023-02-20T03:56:43.293Z,101342.78
2023-02-20T03:59:16.658Z,101333.03
2023-02-20T04:01:47.568Z,101326.63
2023-02-20T04:04:22.186Z,101337.59
2023-02-20T04:06:52.505Z,101330.41
2023-02-20T04:09:23.994Z,101340.16
2023-02-20T04:11:59.130Z,101322.34
2023-02-20T04:14:30.085Z,101312.91
2023-02-20T04:17:01.656Z,101296.44
2023-02-20T04:19:29.364Z,101312.59
2023-02-20T04:22:00.409Z,101313.28
2023-02-20T04:24:32.375Z,101295.63
2023-02-20T04:27:01.829Z,101297.06
2023-02-20T04:29:29.906Z,101281.25
2023-02-20T04:31:58.139Z,101257.38
2023-02-20T04:34:27.627Z,101239.53
2023-02-20T04:37:10.213Z,101225.91
2023-02-20T04:39:38.287Z,101227.25
2023-02-20T04:42:07.446Z,101212.44
2023-02-20T04:44:36.634Z,101217.84
2023-02-20T04:47:12.253Z,101227.44
2023-02-20T04:49:39.994Z,101226.44
2023-02-20T04:52:07.689Z,101244.78
2023-02-20T04:54:35.304Z,101236.34
2023-02-20T04:57:02.903Z,101231.31
2023-02-20T04:59:31.797Z,101246.28
2023-02-20T05:02:02.004Z,101241.91
2023-02-20T05:04:30.010Z,101241.72
2023-02-20T05:06:59.014Z,101243.06
2023-02-20T05:09:26.797Z,101233.97
2023-02-20T05:11:54.773Z,101241.72
2023-02-20T05:14:22.918Z,101238.03
2023-02-20T05:16:52.118Z,101236.88
2023-02-20T05:19:19.748Z,101243.72
2023-02-20T05:22:05.368Z,101228.94
2023-02-20T05:24:33.308Z,101231.28
2023-02-20T05:27:00.973Z,101235.31
2023-02-20T05:29:28.604Z,101235.31
2023-02-20T05:31:57.530Z,101233.47
2023-02-20T05:34:25.715Z,101224.03
2023-02-20T05:36:54.780Z,101220.50
2023-02-20T05:39:22.378Z,101226.22
2023-02-20T05:41:50.188Z,101197.94
2023-02-20T05:44:17.829Z,101196.44
2023-02-20T05:46:45.497Z,101191.72
2023-02-20T05:49:14.642Z,101191.38
2023-02-20T05:51:42.259Z,101189.38
2023-02-20T05:54:09.897Z,101180.47
2023-02-20T05:56:37.492Z,101182.28
2023-02-20T05:59:05.090Z,101187.50
2023-02-20T06:01:33.364Z,101169.53
2023-02-20T06:04:01.675Z,101182.00
2023-02-20T06:06:34.900Z,101165.31
2023-02-20T06:09:02.839Z,101163.28
2023-02-20T06:11:30.668Z,101156.53
2023-02-20T06:13:58.673Z,101150.16
2023-02-20T06:16:28.183Z,101152.84
2023-02-20T06:18:56.446Z,101148.16
2023-02-20T06:21:25.246Z,101154.19
2023-02-20T06:23:55.378Z,101162.13
2023-02-20T06:26:24.097Z,101157.22
2023-02-20T06:28:53.101Z,101157.22
2023-02-20T06:31:25.078Z,101161.63
2023-02-20T06:33:53.214Z,101163.97
2023-02-20T06:36:23.605Z,101150.50
2023-02-20T06:38:51.274Z,101156.06
2023-02-20T06:41:20.376Z,101168.03
2023-02-20T06:43:48.027Z,101160.28
2023-02-20T06:46:15.959Z,101156.75
2023-02-20T06:48:47.085Z,101165.19
2023-02-20T06:51:17.463Z,101161.31
2023-02-20T06:53:45.065Z,101169.75
2023-02-20T06:56:18.563Z,101179.66
2023-02-20T06:58:49.679Z,101190.25
2023-02-20T07:01:18.324Z,101182.53
2023-02-20T07:03:48.716Z,101178.66
2023-02-20T07:06:16.705Z,101183.19
2023-02-20T07:08:44.529Z,101195.66
2023-02-20T07:11:12.592Z,101193.31
2023-02-20T07:13:40.666Z,101181.53
2023-02-20T07:16:09.802Z,101184.53
2023-02-20T07:18:37.417Z,101174.75
2023-02-20T07:21:05.615Z,101171.91
2023-02-20T07:23:33.243Z,101171.06
2023-02-20T07:26:01.513Z,101165.66
2023-02-20T07:28:29.142Z,101163.66
2023-02-20T07:30:56.790Z,101156.56
2023-02-20T07:33:25.756Z,101150.66
2023-02-20T07:35:53.393Z,101153.88
2023-02-20T07:38:21.233Z,101141.59
2023-02-20T07:40:48.950Z,101150.00
2023-02-20T07:43:16.713Z,101159.63
2023-02-20T07:45:44.394Z,101160.28
2023-02-20T07:48:12.065Z,101173.91
2023-02-20T07:50:41.090Z,101176.13
2023-02-20T07:53:08.788Z,101186.91
2023-02-20T07:55:36.533Z,101174.09
2023-02-20T07:58:04.155Z,101186.56
2023-02-20T08:00:31.882Z,101184.34
2023-02-20T08:03:00.556Z,101187.75
2023-02-20T08:05:40.246Z,101170.41
2023-02-20T08:08:16.150Z,101162.81
2023-02-20T08:10:43.989Z,101161.47
2023-02-20T08:13:12.089Z,101163.00
2023-02-20T08:15:41.516Z,101152.22
2023-02-20T08:18:22.100Z,101151.03
2023-02-20T08:20:52.092Z,101148.19
2023-02-20T08:23:24.278Z,101147.47
2023-02-20T08:25:52.199Z,101150.88
2023-02-20T08:28:20.462Z,101140.75
2023-02-20T08:30:48.277Z,101142.78
2023-02-20T08:33:15.872Z,101138.41
2023-02-20T08:35:44.101Z,101134.34
2023-02-20T08:38:27.341Z,101138.91
2023-02-20T08:40:55.112Z,101127.25
2023-02-20T08:43:22.795Z,101127.09
2023-02-20T08:45:50.928Z,101131.63
2023-02-20T08:48:18.628Z,101117.50
2023-02-20T08:50:46.907Z,101136.38
2023-02-20T08:53:14.772Z,101120.38
2023-02-20T08:55:44.236Z,101129.97
2023-02-20T08:58:12.223Z,101132.97
2023-02-20T09:00:39.836Z,101135.00
2023-02-20T09:03:08.657Z,101146.78
2023-02-20T09:05:39.078Z,101121.34
2023-02-20T09:08:07.149Z,101132.63
2023-02-20T09:10:34.921Z,101124.91
2023-02-20T09:13:04.828Z,101121.03
2023-02-20T09:15:38.556Z,101118.81
2023-02-20T09:18:09.379Z,101115.09
2023-02-20T09:20:37.944Z,101102.50
2023-02-20T09:23:07.169Z,101113.44
2023-02-20T09:25:35.800Z,101090.34
2023-02-20T09:28:06.321Z,101094.56
2023-02-20T09:30:33.930Z,101096.59
2023-02-20T09:33:01.647Z,101093.91
2023-02-20T09:35:31.668Z,101093.91
2023-02-20T09:37:59.313Z,101084.63
2023-02-20T09:40:28.881Z,101087.84
2023-02-20T09:43:15.491Z,101077.22
2023-02-20T09:45:50.218Z,101060.53
2023-02-20T09:48:32.940Z,101058.00
2023-02-20T09:51:04.747Z,101065.75
2023-02-20T09:53:36.318Z,101068.97
2023-02-20T09:56:07.370Z,101055.84
2023-02-20T09:58:44.507Z,101066.78
2023-02-20T10:01:14.542Z,101061.19
2023-02-20T10:03:54.079Z,101044.66
2023-02-20T10:06:26.136Z,101055.97
2023-02-20T10:08:54.759Z,101052.59
2023-02-20T10:11:38.017Z,101036.94
2023-02-20T10:14:33.010Z,101031.22
2023-02-20T10:17:13.262Z,101043.84
2023-02-20T10:19:51.686Z,101036.09
2023-02-20T10:22:21.956Z,101041.81
2023-02-20T10:25:08.267Z,101052.28
2023-02-20T10:27:45.756Z,101042.69
2023-02-20T10:30:20.020Z,101069.81
2023-02-20T10:32:53.196Z,101068.63
2023-02-20T10:35:25.746Z,101059.88
2023-02-20T10:37:57.989Z,101073.00
2023-02-20T10:40:32.547Z,101060.03
2023-02-20T10:43:03.432Z,101047.41
2023-02-20T10:45:49.480Z,101055.47
2023-02-20T10:48:18.234Z,101045.06
2023-02-20T10:50:51.456Z,101058.00
2023-02-20T10:53:27.578Z,101072.00
2023-02-20T10:56:01.385Z,101054.47
2023-02-20T10:58:35.265Z,101053.47
2023-02-20T11:01:07.781Z,101069.66
2023-02-20T11:03:43.767Z,101081.75
2023-02-20T11:06:16.279Z,101073.34
2023-02-20T11:08:44.693Z,101067.94
2023-02-20T11:11:33.294Z,101069.28
2023-02-20T11:14:03.268Z,101063.06
2023-02-20T11:16:37.762Z,101072.31
2023-02-20T11:19:13.367Z,101071.31
2023-02-20T11:21:42.806Z,101063.22
2023-02-20T11:24:32.965Z,101060.53
2023-02-20T11:27:03.944Z,101083.13
2023-02-20T11:29:38.492Z,101070.63
2023-02-20T11:32:24.053Z,101058.66
2023-02-20T11:35:21.423Z,101050.56
2023-02-20T11:37:55.458Z,101059.84
2023-02-20T11:40:28.788Z,101043.47
2023-02-20T11:42:56.477Z,101034.56
2023-02-20T11:45:26.198Z,101027.31
2023-02-20T11:48:10.894Z,101035.91
2023-02-20T11:50:42.579Z,101023.78
2023-02-20T11:53:19.920Z,101015.69
2023-02-20T11:55:59.536Z,101000.34
2023-02-20T11:58:29.935Z,101017.53
2023-02-20T12:00:57.712Z,101021.94
2023-02-20T12:03:29.196Z,101021.72
2023-02-20T12:05:58.411Z,101016.50
2023-02-20T12:08:39.616Z,101020.41
2023-02-20T12:11:10.650Z,101039.97
2023-02-20T12:13:41.968Z,101035.72
2023-02-20T12:16:31.080Z,101042.25
2023-02-20T12:19:08.460Z,101034.84
2023-02-20T12:21:46.954Z,101029.47
2023-02-20T12:24:39.758Z,101019.91
2023-02-20T12:27:27.407Z,101037.59
2023-02-20T12:30:04.641Z,101025.94
2023-02-20T12:32:53.653Z,100995.44
2023-02-20T12:35:30.820Z,100999.69
2023-02-20T12:38:27.045Z,101001.69
2023-02-20T12:41:13.448Z,101020.56
2023-02-20T12:43:49.561Z,101015.16
2023-02-20T12:46:22.660Z,101011.81
2023-02-20T12:49:14.925Z,101014.31
2023-02-20T12:51:53.904Z,101021.59
2023-02-20T12:54:33.413Z,101023.75
2023-02-20T12:57:10.103Z,101014.09
2023-02-20T12:59:43.952Z,101013.94
2023-02-20T13:02:32.555Z,101009.06
2023-02-20T13:05:10.201Z,101013.00
2023-02-20T13:07:46.711Z,101016.34
2023-02-20T13:10:19.988Z,101006.09
2023-02-20T13:12:49.822Z,101002.88
2023-02-20T13:15:33.045Z,101007.44
2023-02-20T13:18:07.984Z,101004.72
2023-02-20T13:20:44.622Z,101007.09
2023-02-20T13:23:30.908Z,101011.13
2023-02-20T13:25:58.895Z,100997.63
2023-02-20T13:28:37.126Z,100989.03
2023-02-20T13:31:15.164Z,100991.41
2023-02-20T13:33:44.600Z,100992.06
2023-02-20T13:36:38.824Z,101003.00
2023-02-20T13:39:45.731Z,100996.94
2023-02-20T13:42:36.679Z,100990.38
2023-02-20T13:45:38.795Z,100983.28
2023-02-20T13:48:39.193Z,100978.91
2023-02-20T13:51:38.562Z,100989.84
2023-02-20T13:54:18.868Z,100973.34
2023-02-20T13:56:51.637Z,100969.13
2023-02-20T13:59:22.180Z,100976.22
2023-02-20T14:02:03.477Z,100962.06
2023-02-20T14:04:32.257Z,100972.13
2023-02-20T14:06:59.963Z,100967.94
2023-02-20T14:09:31.975Z,100976.53
2023-02-20T14:12:08.921Z,100962.34
2023-02-20T14:14:42.242Z,100971.41
2023-02-20T14:17:17.536Z,100947.34
2023-02-20T14:19:47.458Z,100959.34
2023-02-20T14:22:22.974Z,100970.13
2023-02-20T14:25:32.483Z,100961.34
2023-02-20T14:28:09.590Z,100964.72
2023-02-20T14:30:39.043Z,100952.81
2023-02-20T14:33:23.462Z,100957.47
2023-02-20T14:36:11.874Z,100959.97
2023-02-20T14:38:55.205Z,100961.22
2023-02-20T14:41:24.883Z,100954.31
2023-02-20T14:43:58.111Z,100968.44
2023-02-20T14:46:32.149Z,100956.13
2023-02-20T14:49:08.867Z,100968.75
2023-02-20T14:51:36.970Z,100966.06
2023-02-20T14:54:19.268Z,100969.13
2023-02-20T14:56:48.001Z,100961.03
2023-02-20T14:59:26.939Z,100968.84
2023-02-20T15:01:58.749Z,100987.84
2023-02-20T15:04:28.200Z,100984.97
2023-02-20T15:07:03.681Z,100986.66
2023-02-20T15:09:39.819Z,100989.50
2023-02-20T15:12:09.478Z,100984.47
2023-02-20T15:14:43.408Z,100991.41
2023-02-20T15:17:22.409Z,100992.75
2023-02-20T15:19:52.160Z,100997.78
2023-02-20T15:22:25.242Z,100990.88
2023-02-20T15:24:53.200Z,100986.53
2023-02-20T15:27:24.283Z,100980.09
2023-02-20T15:30:11.510Z,100998.16
2023-02-20T15:32:42.469Z,100987.72
2023-02-20T15:35:16.488Z,100995.94
2023-02-20T15:37:49.597Z,101003.91
2023-02-20T15:40:22.747Z,100989.38
2023-02-20T15:42:56.094Z,100997.78
2023-02-20T15:45:24.592Z,100989.88
2023-02-20T15:47:53.717Z,100986.34
2023-02-20T15:50:22.204Z,100985.81
2023-02-20T15:52:50.171Z,100989.19
2023-02-20T15:55:20.740Z,100982.59
2023-02-20T15:57:49.894Z,100981.97
2023-02-20T16:00:22.818Z,100985.81
2023-02-20T16:02:50.862Z,100983.34
2023-02-20T16:05:20.380Z,100977.75
2023-02-20T16:07:48.134Z,100976.59
2023-02-20T16:10:17.113Z,100968.84
2023-02-20T16:12:45.291Z,100974.75
2023-02-20T16:15:17.140Z,100972.38
2023-02-20T16:17:47.220Z,100975.25
2023-02-20T16:20:20.245Z,100968.13
2023-02-20T16:22:49.269Z,100977.06
2023-02-20T16:25:22.345Z,100979.91
2023-02-20T16:27:53.654Z,100980.22
2023-02-20T16:30:32.969Z,100980.94
2023-02-20T16:33:01.791Z,100978.94
2023-02-20T16:35:29.510Z,100980.81
2023-02-20T16:37:58.491Z,100978.91
2023-02-20T16:40:26.696Z,101003.00
2023-02-20T16:42:54.283Z,101000.00
2023-02-20T16:45:22.422Z,100987.69
2023-02-20T16:47:52.350Z,100990.00
2023-02-20T16:50:23.565Z,100989.00
2023-02-20T16:52:52.805Z,100993.06
2023-02-20T16:55:24.728Z,100996.28
2023-02-20T16:57:52.818Z,100995.41
2023-02-20T17:00:22.630Z,100992.25
2023-02-20T17:02:50.247Z,100985.66
2023-02-20T17:05:19.998Z,101000.16
2023-02-20T17:07:47.789Z,100991.75
2023-02-20T17:10:16.058Z,100999.19
2023-02-20T17:12:45.042Z,100999.69
2023-02-20T17:15:15.950Z,100996.09
2023-02-20T17:17:44.576Z,100987.31
2023-02-20T17:20:13.809Z,101006.88
2023-02-20T17:22:42.494Z,100999.94
2023-02-20T17:25:10.336Z,101007.69
2023-02-20T17:27:37.971Z,101005.19
2023-02-20T17:30:08.840Z,101009.03
2023-02-20T17:32:36.499Z,101006.16
2023-02-20T17:35:04.334Z,100999.97
2023-02-20T17:37:34.594Z,101001.66
2023-02-20T17:40:03.091Z,101003.13
2023-02-20T17:42:31.575Z,100993.84
2023-02-20T17:45:01.040Z,101001.44
2023-02-20T17:47:30.233Z,100987.13
2023-02-20T17:49:57.871Z,100988.97
2023-02-20T17:52:25.722Z,100985.75
2023-02-20T17:54:55.289Z,100986.59
2023-02-20T17:57:24.298Z,100976.47
2023-02-20T17:59:51.960Z,100973.78
2023-02-20T18:02:20.384Z,100986.22
2023-02-20T18:04:49.443Z,100986.22
2023-02-20T18:07:18.029Z,100982.69
2023-02-20T18:09:45.881Z,100986.06
2023-02-20T18:12:13.589Z,100984.72
2023-02-20T18:14:41.188Z,100966.69
2023-02-20T18:17:08.902Z,100976.28
2023-02-20T18:19:36.526Z,100979.63
2023-02-20T18:22:05.491Z,100990.31
2023-02-20T18:24:34.328Z,100991.25
2023-02-20T18:27:01.902Z,100991.94
2023-02-20T18:29:30.201Z,100987.19
2023-02-20T18:31:58.110Z,100988.38
2023-02-20T18:34:27.096Z,100989.88
2023-02-20T18:36:55.625Z,100990.72
2023-02-20T18:39:25.112Z,100985.00
2023-02-20T18:41:54.378Z,100974.53
2023-02-20T18:44:23.893Z,100969.69
2023-02-20T18:46:52.177Z,100968.97
2023-02-20T18:49:19.854Z,100973.69
2023-02-20T18:51:47.523Z,100971.00
2023-02-20T18:54:21.083Z,100979.41
2023-02-20T18:56:52.200Z,100979.59
2023-02-20T18:59:20.348Z,100967.66
2023-02-20T19:01:48.027Z,100952.13
2023-02-20T19:04:16.100Z,100956.19
2023-02-20T19:06:44.935Z,100955.81
2023-02-20T19:09:14.913Z,100971.00
2023-02-20T19:11:42.734Z,100962.06
2023-02-20T19:14:11.657Z,100957.31
2023-02-20T19:16:39.305Z,100960.22
2023-02-20T19:19:07.788Z,100953.25
2023-02-20T19:21:35.383Z,100964.91
2023-02-20T19:24:04.022Z,100960.03
2023-02-20T19:26:31.766Z,100946.00
2023-02-20T19:31:28.226Z,100954.22
2023-02-20T19:33:55.886Z,100951.03
2023-02-20T19:36:23.489Z,100950.66
2023-02-20T19:38:51.178Z,100958.25
2023-02-20T19:41:19.281Z,100966.53
2023-02-20T19:43:48.168Z,100965.53
2023-02-20T19:46:16.927Z,100964.47
2023-02-20T19:48:47.758Z,100960.75
2023-02-20T19:51:19.499Z,100951.34
2023-02-20T19:53:49.168Z,100960.75
2023-02-20T19:56:16.834Z,100960.56
2023-02-20T19:58:44.698Z,100959.94
2023-02-20T20:01:14.901Z,100949.97
2023-02-20T20:03:43.823Z,100960.75
2023-02-20T20:06:16.013Z,100948.94
2023-02-20T20:09:09.521Z,100947.56
2023-02-20T20:11:32.053Z,100949.59
2023-02-20T20:13:59.663Z,100953.53
2023-02-20T20:16:27.290Z,100959.75
2023-02-20T20:18:55.110Z,100960.41
2023-02-20T20:21:24.079Z,100945.25
2023-02-20T20:23:54.047Z,100948.66
2023-02-20T20:26:25.437Z,100963.66
2023-02-20T20:28:53.496Z,100942.44
2023-02-20T20:31:23.875Z,100946.78
2023-02-20T20:33:52.420Z,100931.31
2023-02-20T20:36:20.526Z,100931.53
2023-02-20T20:38:49.472Z,100938.28
2023-02-20T20:41:17.068Z,100943.94
2023-02-20T20:43:45.228Z,100931.13
2023-02-20T20:46:14.197Z,100937.19
2023-02-20T20:48:44.217Z,100924.13
2023-02-20T20:51:13.045Z,100931.66
2023-02-20T20:53:40.904Z,100933.28
2023-02-20T20:56:11.185Z,100934.41
2023-02-20T20:58:38.969Z,100935.28
2023-02-20T21:01:07.270Z,100935.50
2023-02-20T21:03:34.918Z,100929.28
2023-02-20T21:06:03.127Z,100939.41
2023-02-20T21:08:33.257Z,100928.25
2023-02-20T21:11:01.039Z,100926.09
2023-02-20T21:13:30.007Z,100930.66
2023-02-20T21:15:58.423Z,100924.97
2023-02-20T21:18:26.114Z,100921.25
2023-02-20T21:20:53.791Z,100929.88
2023-02-20T21:23:21.403Z,100923.28
2023-02-20T21:25:49.281Z,100933.41
2023-02-20T21:28:16.995Z,100930.44
2023-02-20T21:30:47.525Z,100937.16
2023-02-20T21:33:15.528Z,100927.72
2023-02-20T21:35:43.196Z,100929.75
2023-02-20T21:38:10.854Z,100920.34
2023-02-20T21:40:38.441Z,100928.25
2023-02-20T21:43:22.864Z,100926.22
2023-02-20T21:45:52.615Z,100946.97
2023-02-20T21:48:20.284Z,100940.06
2023-02-20T21:50:47.928Z,100936.72
2023-02-20T21:53:16.799Z,100931.31
2023-02-20T21:55:44.723Z,100945.66
2023-02-20T21:58:12.844Z,100950.84
2023-02-20T22:00:39.457Z,100939.53
2023-02-20T22:03:07.490Z,100951.88
2023-02-20T22:05:34.041Z,100934.84
2023-02-20T22:08:19.229Z,100934.19
2023-02-20T22:11:04.469Z,100935.53
2023-02-20T22:13:49.793Z,100927.75
2023-02-20T22:16:36.883Z,100928.63
2023-02-20T22:19:23.317Z,100931.50
2023-02-20T22:22:08.573Z,100938.56
2023-02-20T22:24:54.406Z,100939.06
2023-02-20T22:27:39.909Z,100934.78
2023-02-20T22:30:26.376Z,100930.13
2023-02-20T22:33:11.669Z,100939.88
2023-02-20T22:35:58.200Z,100932.94
2023-02-20T22:38:43.386Z,100936.84
2023-02-20T22:41:28.819Z,100936.34
2023-02-20T22:44:14.097Z,100942.94
2023-02-20T22:46:59.697Z,100931.44
2023-02-20T22:49:45.028Z,100942.06
2023-02-20T22:52:31.627Z,100934.47
2023-02-20T22:55:17.139Z,100931.94
2023-02-20T22:58:02.323Z,100932.38
2023-02-20T23:00:47.405Z,100937.19
2023-02-20T23:03:33.743Z,100929.38
2023-02-20T23:06:20.008Z,100931.75
2023-02-20T23:09:08.221Z,100936.72
2023-02-20T23:11:54.616Z,100945.66
2023-02-20T23:14:41.462Z,100941.56
2023-02-20T23:17:37.209Z,100953.53
2023-02-20T23:20:24.261Z,100939.16
2023-02-20T23:23:09.585Z,100956.06
2023-02-20T23:25:56.067Z,100951.47
2023-02-20T23:28:41.230Z,100947.56
2023-02-20T23:31:26.883Z,100955.84
2023-02-20T23:34:12.108Z,100955.00
2023-02-20T23:36:58.373Z,100952.97
2023-02-20T23:39:43.604Z,100960.41
2023-02-20T23:42:30.218Z,100954.72
2023-02-20T23:45:15.384Z,100955.38
2023-02-20T23:48:01.442Z,100956.69
2023-02-20T23:50:46.760Z,100954.03
2023-02-20T23:53:32.189Z,100968.03
2023-02-20T23:56:17.412Z,100970.53
2023-02-20T23:59:03.898Z,100966.84
